Tranent, United Kingdom
Current Conditions -  °F | °C
As of 12:20 AM on Monday 22 Dec 2014 (Local Time) from EGPH Reporting Station
Light Rain Light Rain  
Wind Chill: 52°   Ceiling: 2000
Heat Index: 52°   Visibility: 6mi
Dew Point: 48°   Wind: 15mph
Humidity: 88%   Direction: 260°W
Pressure: 29.59"   Gusts: NA
Location:  55.94°N, 2.95°W
Report Text: EGPH 220020Z 26013KT 9999 -RA SCT015CB BKN020 BKN036 11/09 Q1002
Loading
Personal Weather Stations






























Interactive Weather Map New forecast layout! Learn more

10-Day Weather Forecast

Advertisements
Track Severe Weather on mobile